createdAt,value
2022-08-22T08:08:04.221Z,91.02
2022-08-22T08:10:39.782Z,90.93
2022-08-22T08:13:13.675Z,90.70
2022-08-22T08:15:46.190Z,90.39
2022-08-22T08:18:22.187Z,90.07
2022-08-22T08:20:53.841Z,89.81
2022-08-22T08:23:25.383Z,89.74
2022-08-22T08:26:01.183Z,89.15
2022-08-22T08:28:35.774Z,89.23
2022-08-22T08:31:10.970Z,89.09
2022-08-22T08:33:42.782Z,88.69
2022-08-22T08:36:27.460Z,88.52
2022-08-22T08:39:10.623Z,88.57
2022-08-22T08:42:01.553Z,88.40
2022-08-22T08:44:57.222Z,88.44
2022-08-22T08:47:44.922Z,88.79
2022-08-22T08:50:29.522Z,88.84
2022-08-22T08:53:24.794Z,89.06
2022-08-22T08:56:01.949Z,89.29
2022-08-22T08:58:41.433Z,89.57
2022-08-22T09:01:38.214Z,89.66
2022-08-22T09:04:32.483Z,90.01
2022-08-22T09:07:28.229Z,90.19
2022-08-22T09:10:16.763Z,90.29
2022-08-22T09:13:12.213Z,90.41
2022-08-22T09:16:03.541Z,90.42
2022-08-22T09:19:02.452Z,90.89
2022-08-22T09:21:56.726Z,90.82
2022-08-22T09:24:57.074Z,90.84
2022-08-22T09:27:36.244Z,90.95
2022-08-22T09:30:13.062Z,90.65
2022-08-22T09:32:49.165Z,90.77
2022-08-22T09:35:27.471Z,90.55
2022-08-22T09:38:27.845Z,90.55
2022-08-22T09:41:03.023Z,90.41
2022-08-22T09:43:39.617Z,90.33
2022-08-22T09:46:20.204Z,90.11
2022-08-22T09:49:05.604Z,89.66
2022-08-22T09:51:43.482Z,89.47
2022-08-22T09:54:31.356Z,89.14
2022-08-22T09:57:24.498Z,88.90
2022-08-22T10:00:14.898Z,88.71
2022-08-22T10:02:59.400Z,88.44
2022-08-22T10:05:44.244Z,88.37
2022-08-22T10:08:33.155Z,88.39
2022-08-22T10:11:19.579Z,88.09
2022-08-22T10:14:02.545Z,87.78
2022-08-22T10:16:44.295Z,87.57
2022-08-22T10:19:23.415Z,87.39
2022-08-22T10:22:18.982Z,87.06
2022-08-22T10:24:58.578Z,86.97
2022-08-22T10:27:42.875Z,86.70
2022-08-22T10:30:18.652Z,86.67
2022-08-22T10:32:52.989Z,86.46
2022-08-22T10:35:33.643Z,86.17
2022-08-22T10:38:10.657Z,86.28
2022-08-22T10:40:48.263Z,85.90
2022-08-22T10:43:28.762Z,85.77
2022-08-22T10:46:12.513Z,85.67
2022-08-22T10:48:49.820Z,85.59
2022-08-22T10:51:28.673Z,85.15
2022-08-22T10:54:10.276Z,84.75
2022-08-22T10:56:45.660Z,83.77
2022-08-22T10:59:27.906Z,82.76
2022-08-22T11:02:12.551Z,82.65
2022-08-22T11:05:03.913Z,82.03
2022-08-22T11:07:48.712Z,80.65
2022-08-22T11:10:29.764Z,80.09
2022-08-22T11:13:14.517Z,79.09
2022-08-22T11:16:04.528Z,78.87
2022-08-22T11:19:02.925Z,79.31
2022-08-22T11:21:47.634Z,78.78
2022-08-22T11:25:00.223Z,78.08
2022-08-22T11:27:42.218Z,77.63
2022-08-22T11:30:18.763Z,77.29
2022-08-22T11:33:20.153Z,77.01
2022-08-22T11:35:57.077Z,77.31
2022-08-22T11:38:37.266Z,77.86
2022-08-22T11:41:14.315Z,77.89
2022-08-22T11:43:57.638Z,77.61
2022-08-22T11:46:31.672Z,77.88
2022-08-22T11:49:27.040Z,78.16
2022-08-22T11:52:14.347Z,78.54
2022-08-22T11:55:17.248Z,78.80
2022-08-22T11:57:50.467Z,78.79
2022-08-22T12:00:30.915Z,78.82
2022-08-22T12:03:25.213Z,78.73
2022-08-22T12:06:02.051Z,78.37
2022-08-22T12:08:52.427Z,78.21
2022-08-22T12:11:26.734Z,77.56
2022-08-22T12:14:06.500Z,76.74
2022-08-22T12:16:45.166Z,75.97
2022-08-22T12:19:24.082Z,75.98
2022-08-22T12:22:25.414Z,75.75
2022-08-22T12:25:14.489Z,75.25
2022-08-22T12:28:01.009Z,74.58
2022-08-22T12:30:38.592Z,74.24
2022-08-22T12:33:33.072Z,74.80
2022-08-22T12:36:40.296Z,74.91
2022-08-22T12:39:27.714Z,73.79
2022-08-22T12:42:25.828Z,72.60
2022-08-22T12:45:14.020Z,72.98
2022-08-22T12:48:00.369Z,71.81
2022-08-22T12:50:39.936Z,70.54
2022-08-22T12:53:38.824Z,70.10
2022-08-22T12:56:18.127Z,69.61
2022-08-22T12:59:22.544Z,70.55
2022-08-22T13:01:55.116Z,69.67
2022-08-22T13:04:32.555Z,68.87
2022-08-22T13:07:09.000Z,67.75
2022-08-22T13:09:40.137Z,68.27
2022-08-22T13:12:26.476Z,68.30
2022-08-22T13:15:02.536Z,68.53
2022-08-22T13:17:32.259Z,69.98
2022-08-22T13:20:13.506Z,68.85
2022-08-22T13:22:45.593Z,69.48
2022-08-22T13:25:26.492Z,70.44
2022-08-22T13:27:59.074Z,70.95
2022-08-22T13:30:37.519Z,70.92
2022-08-22T13:33:11.021Z,70.80
2022-08-22T13:35:52.334Z,70.90
2022-08-22T13:38:27.089Z,71.71
2022-08-22T13:40:58.971Z,71.39
2022-08-22T13:43:31.531Z,71.29
2022-08-22T13:46:03.428Z,70.84
2022-08-22T13:48:49.474Z,72.29
2022-08-22T13:51:32.561Z,73.74
2022-08-22T13:54:21.556Z,75.59
2022-08-22T13:56:56.790Z,76.27
2022-08-22T13:59:54.215Z,76.50
2022-08-22T14:02:43.477Z,77.70
2022-08-22T14:05:18.503Z,79.69
2022-08-22T14:07:58.530Z,81.24
2022-08-22T14:10:34.566Z,82.07
2022-08-22T14:13:28.800Z,82.56
2022-08-22T14:16:02.143Z,83.45
2022-08-22T14:18:45.607Z,84.36
2022-08-22T14:21:28.830Z,85.13
2022-08-22T14:24:18.846Z,85.77
2022-08-22T14:27:05.712Z,86.65
2022-08-22T14:29:45.146Z,87.05
2022-08-22T14:32:43.673Z,87.29
2022-08-22T14:35:37.474Z,87.28
2022-08-22T14:38:27.140Z,87.28
2022-08-22T14:41:03.228Z,87.24
2022-08-22T14:43:50.705Z,87.00
2022-08-22T14:46:28.346Z,86.58
2022-08-22T14:49:28.725Z,86.54
2022-08-22T14:52:09.020Z,86.61
2022-08-22T14:54:39.155Z,86.98
2022-08-22T14:57:20.168Z,87.41
2022-08-22T14:59:53.065Z,87.46
2022-08-22T15:02:29.754Z,87.46
2022-08-22T15:05:05.579Z,87.45
2022-08-22T15:07:37.690Z,87.87
2022-08-22T15:10:11.860Z,87.91
2022-08-22T15:12:50.053Z,87.95
2022-08-22T15:15:32.725Z,87.55
2022-08-22T15:18:35.092Z,87.49
2022-08-22T15:21:08.776Z,87.26
2022-08-22T15:23:45.000Z,87.10
2022-08-22T15:26:24.568Z,86.99
2022-08-22T15:29:07.884Z,86.85
2022-08-22T15:31:41.501Z,86.81
2022-08-22T15:34:24.322Z,86.83
2022-08-22T15:37:14.266Z,86.94
2022-08-22T15:40:11.828Z,86.98
2022-08-22T15:42:45.449Z,86.90
2022-08-22T15:45:31.293Z,86.90
2022-08-22T15:48:06.325Z,86.93
2022-08-22T15:50:41.862Z,86.84
2022-08-22T15:53:15.694Z,86.80
2022-08-22T15:56:19.915Z,86.94
2022-08-22T15:58:56.002Z,87.10
2022-08-22T16:01:28.120Z,86.98
2022-08-22T16:04:03.734Z,86.97
2022-08-22T16:06:44.725Z,87.03
2022-08-22T16:09:37.027Z,87.03
2022-08-22T16:12:13.564Z,86.89
2022-08-22T16:14:54.052Z,86.93
2022-08-22T16:17:44.105Z,87.26
2022-08-22T16:20:33.958Z,87.30
2022-08-22T16:23:09.816Z,87.58
2022-08-22T16:26:00.213Z,87.80
2022-08-22T16:28:56.987Z,87.89
2022-08-22T16:31:29.127Z,88.11
2022-08-22T16:34:21.094Z,88.21
2022-08-22T16:37:13.843Z,88.21
2022-08-22T16:39:46.201Z,88.46
2022-08-22T16:42:28.153Z,88.50
2022-08-22T16:45:12.674Z,88.25
2022-08-22T16:47:54.523Z,88.15
2022-08-22T16:50:37.213Z,87.90
2022-08-22T16:53:14.263Z,87.83
2022-08-22T16:56:07.977Z,87.55
2022-08-22T16:59:22.025Z,87.45
2022-08-22T17:02:13.260Z,86.77
2022-08-22T17:04:53.136Z,86.22
2022-08-22T17:07:35.945Z,85.69
2022-08-22T17:10:34.845Z,85.21
2022-08-22T17:13:26.499Z,85.24
2022-08-22T17:16:10.375Z,85.32
2022-08-22T17:18:57.282Z,85.25
2022-08-22T17:21:30.563Z,84.70
2022-08-22T17:24:31.710Z,84.74
2022-08-22T17:27:14.494Z,85.20
2022-08-22T17:30:02.839Z,85.47
2022-08-22T17:32:41.773Z,85.50
2022-08-22T17:35:27.317Z,85.81
2022-08-22T17:38:11.033Z,85.59
2022-08-22T17:40:54.878Z,85.71
2022-08-22T17:43:48.692Z,85.75
2022-08-22T17:46:35.091Z,86.41
2022-08-22T17:49:17.047Z,86.59
2022-08-22T17:51:53.153Z,86.76
2022-08-22T17:54:29.635Z,87.00
2022-08-22T17:57:06.356Z,87.58
2022-08-22T17:59:47.152Z,87.75
2022-08-22T18:02:20.797Z,88.17
2022-08-22T18:04:59.462Z,88.33
2022-08-22T18:07:47.117Z,88.66
2022-08-22T18:10:25.989Z,88.56
2022-08-22T18:13:07.084Z,88.55
2022-08-22T18:15:46.633Z,88.35
2022-08-22T18:18:30.094Z,88.47
2022-08-22T18:21:05.520Z,88.13
2022-08-22T18:23:40.874Z,88.36
2022-08-22T18:26:23.902Z,88.07
2022-08-22T18:28:59.235Z,87.98
2022-08-22T18:31:40.153Z,87.93
2022-08-22T18:34:20.495Z,87.65
2022-08-22T18:37:00.043Z,87.35
2022-08-22T18:39:33.409Z,87.58
2022-08-22T18:42:10.829Z,87.16
2022-08-22T18:44:45.478Z,87.10
2022-08-22T18:47:18.325Z,86.94
2022-08-22T18:49:54.516Z,86.56
2022-08-22T18:52:35.688Z,86.67
2022-08-22T18:55:33.027Z,86.60
2022-08-22T18:58:43.342Z,86.26
2022-08-22T19:01:43.984Z,86.70
2022-08-22T19:04:43.057Z,86.86
2022-08-22T19:07:51.447Z,87.40
2022-08-22T19:10:35.190Z,87.97
2022-08-22T19:13:37.644Z,88.11
2022-08-22T19:16:17.719Z,88.46
2022-08-22T19:18:54.467Z,88.66
2022-08-22T19:21:37.729Z,88.80
2022-08-22T19:24:09.285Z,88.70
2022-08-22T19:26:44.255Z,89.17
2022-08-22T19:29:38.534Z,88.98
2022-08-22T19:32:12.890Z,89.10
2022-08-22T19:34:47.687Z,88.92
2022-08-22T19:37:30.523Z,88.94
2022-08-22T19:40:05.981Z,88.92
2022-08-22T19:42:42.404Z,88.85
2022-08-22T19:45:26.834Z,88.94
2022-08-22T19:48:00.584Z,88.86
2022-08-22T19:50:37.065Z,88.62
2022-08-22T19:53:25.289Z,89.02
2022-08-22T19:56:08.756Z,88.81
2022-08-22T19:59:02.195Z,88.64
2022-08-22T20:01:44.779Z,88.92
2022-08-22T20:04:35.704Z,88.68
2022-08-22T20:07:15.356Z,88.74
2022-08-22T20:09:51.738Z,89.10
2022-08-22T20:12:32.445Z,89.05
2022-08-22T20:15:13.585Z,88.97
2022-08-22T20:18:11.232Z,89.08
2022-08-22T20:20:39.757Z,89.24
2022-08-22T20:23:17.125Z,89.48
2022-08-22T20:25:50.451Z,89.52
2022-08-22T20:28:35.882Z,89.62
2022-08-22T20:31:10.818Z,89.72
2022-08-22T20:33:43.811Z,89.77
2022-08-22T20:36:27.692Z,90.03
2022-08-22T20:39:03.108Z,90.00
2022-08-22T20:41:36.991Z,90.09
2022-08-22T20:44:13.694Z,90.15
2022-08-22T20:46:56.106Z,90.26
2022-08-22T20:49:28.904Z,90.19
2022-08-22T20:52:00.218Z,90.21
2022-08-22T20:54:33.156Z,90.05
2022-08-22T20:57:03.938Z,90.23
2022-08-22T20:59:37.300Z,90.14
2022-08-22T21:02:15.906Z,90.10
2022-08-22T21:04:52.912Z,90.29
2022-08-22T21:07:24.968Z,90.19
2022-08-22T21:10:12.319Z,90.42
2022-08-22T21:12:41.225Z,90.64
2022-08-22T21:15:10.709Z,90.77
2022-08-22T21:17:39.312Z,91.04
2022-08-22T21:20:21.658Z,91.20
2022-08-22T21:22:50.964Z,91.15
2022-08-22T21:25:21.206Z,91.27
2022-08-22T21:27:50.149Z,91.35
2022-08-22T21:30:26.775Z,91.24
2022-08-22T21:32:56.620Z,91.56
2022-08-22T21:35:31.375Z,91.53
2022-08-22T21:38:01.561Z,91.54
2022-08-22T21:40:36.879Z,91.76
2022-08-22T21:43:09.664Z,91.64
2022-08-22T21:45:44.327Z,92.03
2022-08-22T21:48:34.505Z,91.89
2022-08-22T21:51:25.057Z,92.24
2022-08-22T21:54:24.633Z,92.20
2022-08-22T21:56:56.874Z,92.29
2022-08-22T21:59:51.169Z,92.25
2022-08-22T22:02:31.090Z,92.30
2022-08-22T22:05:01.569Z,92.30
2022-08-22T22:07:31.590Z,92.14
2022-08-22T22:10:00.357Z,92.13
2022-08-22T22:12:30.451Z,92.23
2022-08-22T22:14:59.217Z,92.31
2022-08-22T22:17:28.288Z,92.28
2022-08-22T22:19:57.167Z,92.54
2022-08-22T22:22:25.705Z,92.41
2022-08-22T22:24:54.299Z,92.42
2022-08-22T22:27:22.886Z,92.43
2022-08-22T22:29:53.059Z,92.47
2022-08-22T22:32:21.707Z,92.54
2022-08-22T22:34:50.437Z,92.50
2022-08-22T22:37:19.280Z,92.65
2022-08-22T22:39:48.024Z,92.59
2022-08-22T22:42:16.697Z,92.82
2022-08-22T22:44:47.491Z,92.79
2022-08-22T22:47:18.266Z,92.97
2022-08-22T22:49:47.291Z,92.96
2022-08-22T22:52:16.054Z,93.11
2022-08-22T22:54:46.145Z,93.17
2022-08-22T22:57:25.326Z,93.18
2022-08-22T22:59:54.851Z,93.20
2022-08-22T23:02:25.361Z,93.20
2022-08-22T23:04:56.661Z,93.33
2022-08-22T23:07:28.805Z,93.10
2022-08-22T23:10:05.362Z,93.06
2022-08-22T23:12:36.437Z,93.24
2022-08-22T23:15:05.617Z,93.07
2022-08-22T23:17:35.969Z,93.05
2022-08-22T23:20:05.883Z,93.17
2022-08-22T23:22:35.097Z,93.22
2022-08-22T23:25:03.935Z,93.35
2022-08-22T23:27:32.628Z,93.16
2022-08-22T23:30:02.356Z,93.31
2022-08-22T23:32:30.997Z,93.49
2022-08-22T23:35:01.028Z,93.53
2022-08-22T23:37:29.627Z,93.37
2022-08-22T23:39:58.313Z,93.46
2022-08-22T23:42:27.347Z,93.43
2022-08-22T23:44:55.925Z,93.42
2022-08-22T23:47:24.960Z,93.26
2022-08-22T23:49:53.859Z,93.50
2022-08-22T23:52:23.897Z,93.34
2022-08-22T23:54:54.403Z,93.33
2022-08-22T23:57:27.516Z,93.41
2022-08-22T23:59:57.286Z,93.43
